^^
Grace C. Lehan Memorial Weather Station Historical Data
Daily Summary for January 18, 2022 Units:  English    Metric   Both
Daily Weekly Monthly Yearly
  High: Low: Average:
Temperature: 33.5 °F 27.9 °F 30.5 °F
Dew Point: 26 °F 17.2 °F 21.5 °F
Humidity: 79% 63% 69%
Wind Speed: 19mph 2.1mph 8.2mph
Wind Gust: 30mph - -
Wind- - WNW
Pressure: 29.65 in 29.30 in -
Precipitation: 0.00 in    
 
 
Tabular Data for January 18, 2022
Time Temperature Dew Point Pressure Wind Wind Speed Wind Gust Humidity Rainfall Rate (Hourly) solar
00:04 33.5 °F 25.1 °F 29.30 in WNW 8.7 mph 22 mph 70.9% 0.00 in 0 W/m2
00:09 33.4 °F 24.7 °F 29.31 in WNW 9.6 mph 22 mph 70% 0.00 in 0 W/m2
00:14 33.3 °F 24.6 °F 29.31 in WNW 9.2 mph 22 mph 70% 0.00 in 0 W/m2
00:19 33.2 °F 24.2 °F 29.31 in WNW 8.9 mph 22 mph 69.2% 0.00 in 0 W/m2
00:24 33.2 °F 24.5 °F 29.31 in WNW 3.5 mph 22 mph 70% 0.00 in 0 W/m2
00:29 33.1 °F 24.6 °F 29.31 in WNW 5.7 mph 22 mph 70.6% 0.00 in 0 W/m2
00:34 32.9 °F 24.5 °F 29.32 in WNW 7.3 mph 22 mph 71% 0.00 in 0 W/m2
00:39 32.8 °F 24.7 °F 29.32 in WNW 8 mph 15 mph 71.8% 0.00 in 0 W/m2
00:44 32.6 °F 24.7 °F 29.32 in WNW 7.6 mph 17 mph 72.6% 0.00 in 0 W/m2
00:49 32.4 °F 25 °F 29.33 in WNW 11.2 mph 30 mph 73.7% 0.00 in 0 W/m2
00:54 32.2 °F 25.2 °F 29.33 in WNW 11.7 mph 30 mph 75% 0.00 in 0 W/m2
00:59 32.1 °F 25.3 °F 29.33 in WNW 8.2 mph 30 mph 75.8% 0.00 in 0 W/m2
01:04 32 °F 25.5 °F 29.34 in WNW 9.3 mph 30 mph 76.6% 0.00 in 0 W/m2
01:09 31.9 °F 25.7 °F 29.34 in WNW 5.8 mph 16 mph 77.5% 0.00 in 0 W/m2
01:14 31.9 °F 25.8 °F 29.35 in West 3.4 mph 16 mph 78% 0.00 in 0 W/m2
01:19 31.8 °F 25.9 °F 29.35 in WNW 3.6 mph 16 mph 78.4% 0.00 in 0 W/m2
01:24 31.7 °F 26 °F 29.35 in WNW 2.7 mph 16 mph 79% 0.00 in 0 W/m2
01:29 31.7 °F 25.9 °F 29.35 in WNW 7.2 mph 16 mph 79% 0.00 in 0 W/m2
01:34 31.6 °F 25.9 °F 29.36 in WNW 6.9 mph 16 mph 79% 0.00 in 0 W/m2
01:39 31.6 °F 25.9 °F 29.36 in WNW 6.5 mph 16 mph 79% 0.00 in 0 W/m2
01:44 31.6 °F 25.9 °F 29.36 in WNW 6 mph 16 mph 79% 0.00 in 0 W/m2
01:49 31.6 °F 25.9 °F 29.36 in NW 6.6 mph 19 mph 79% 0.00 in 0 W/m2
01:54 31.6 °F 25.4 °F 29.37 in WNW 8.6 mph 19 mph 77.7% 0.00 in 0 W/m2
01:59 31.7 °F 25 °F 29.38 in WNW 11 mph 21 mph 76.1% 0.00 in 0 W/m2
02:04 31.8 °F 24.8 °F 29.38 in WNW 6.4 mph 22 mph 75% 0.00 in 0 W/m2
02:09 31.9 °F 24.6 °F 29.39 in WNW 8.1 mph 22 mph 74.2% 0.00 in 0 W/m2
02:14 31.8 °F 24 °F 29.39 in WNW 9 mph 22 mph 72.4% 0.00 in 0 W/m2
02:19 31.8 °F 23.8 °F 29.39 in WNW 4.8 mph 22 mph 72% 0.00 in 0 W/m2
02:24 31.7 °F 23.6 °F 29.40 in WNW 4 mph 22 mph 71.6% 0.00 in 0 W/m2
02:29 31.6 °F 23.3 °F 29.40 in WNW 2.9 mph 22 mph 71% 0.00 in 0 W/m2
02:34 31.5 °F 23.2 °F 29.41 in NW 3.6 mph 22 mph 70.9% 0.00 in 0 W/m2
02:39 31.4 °F 22.8 °F 29.41 in NW 3.7 mph 15 mph 70% 0.00 in 0 W/m2
02:44 31.3 °F 22.3 °F 29.41 in WNW 10 mph 23 mph 68.9% 0.00 in 0 W/m2
02:49 31.2 °F 22 °F 29.42 in NW 6.1 mph 23 mph 68.5% 0.00 in 0 W/m2
02:54 31 °F 21.9 °F 29.42 in NW 4.6 mph 23 mph 68.5% 0.00 in 0 W/m2
02:59 30.8 °F 21.5 °F 29.42 in WNW 6.3 mph 23 mph 68% 0.00 in 0 W/m2
03:04 30.7 °F 21.5 °F 29.43 in WNW 6.9 mph 23 mph 68% 0.00 in 0 W/m2
03:09 30.7 °F 21.4 °F 29.43 in WNW 8.7 mph 16 mph 68% 0.00 in 0 W/m2
03:14 30.7 °F 21.4 °F 29.43 in WNW 11.3 mph 21 mph 68% 0.00 in 0 W/m2
03:19 30.6 °F 21.3 °F 29.44 in WNW 8.6 mph 22 mph 68% 0.00 in 0 W/m2
03:24 30.6 °F 21.3 °F 29.44 in WNW 10.4 mph 22 mph 68% 0.00 in 0 W/m2
03:29 30.6 °F 21.2 °F 29.44 in NW 7.6 mph 22 mph 67.5% 0.00 in 0 W/m2
03:34 30.5 °F 21.2 °F 29.45 in WNW 7.1 mph 22 mph 68% 0.00 in 0 W/m2
03:39 30.5 °F 21.2 °F 29.45 in WNW 3.6 mph 13 mph 68% 0.00 in 0 W/m2
03:44 30.4 °F 21.2 °F 29.45 in WNW 2.1 mph 13 mph 68.2% 0.00 in 0 W/m2
03:49 30.3 °F 21.4 °F 29.46 in WNW 6.2 mph 17 mph 69% 0.00 in 0 W/m2
03:54 30.3 °F 21.1 °F 29.46 in NW 8.9 mph 20 mph 68.3% 0.00 in 0 W/m2
03:59 30.4 °F 21.1 °F 29.46 in WNW 8.7 mph 22 mph 68% 0.00 in 0 W/m2
04:00 30.4 °F 21.1 °F 29.46 in WNW 19 mph 22 mph 68% 0.00 in 0 W/m2
04:09 30.4 °F 21.1 °F 29.47 in NW 7.4 mph 13 mph 68% 0.00 in 0 W/m2
04:14 30.4 °F 21.1 °F 29.48 in WNW 8.4 mph 19 mph 68% 0.00 in 0 W/m2
04:19 30.3 °F 20.8 °F 29.48 in WNW 11.2 mph 20 mph 67.3% 0.00 in 0 W/m2
04:24 30.3 °F 20.7 °F 29.48 in NW 6 mph 20 mph 67% 0.00 in 0 W/m2
04:29 30.3 °F 21 °F 29.49 in NW 3.9 mph 20 mph 68% 0.00 in 0 W/m2
04:34 30.2 °F 20.9 °F 29.49 in WNW 5.9 mph 20 mph 68% 0.00 in 0 W/m2
04:39 30 °F 20.8 °F 29.50 in NW 8.7 mph 17 mph 68% 0.00 in 0 W/m2
04:44 30 °F 20.4 °F 29.50 in WNW 11.3 mph 21 mph 67.1% 0.00 in 0 W/m2
04:49 30 °F 20.4 °F 29.51 in WNW 7 mph 21 mph 67% 0.00 in 0 W/m2
04:54 29.9 °F 20.2 °F 29.51 in NW 7 mph 21 mph 66.7% 0.00 in 0 W/m2
04:59 29.8 °F 19.9 °F 29.51 in NW 12.7 mph 21 mph 66% 0.00 in 0 W/m2
05:04 29.7 °F 19.7 °F 29.52 in WNW 8 mph 21 mph 65.7% 0.00 in 0 W/m2
05:09 29.6 °F 19.3 °F 29.52 in WNW 9.1 mph 24 mph 65% 0.00 in 0 W/m2
05:14 29.5 °F 19.2 °F 29.53 in WNW 8.8 mph 24 mph 65% 0.00 in 0 W/m2
05:19 29.4 °F 19.1 °F 29.53 in NW 12.8 mph 24 mph 65% 0.00 in 0 W/m2
05:24 29.3 °F 18.9 °F 29.53 in NW 11 mph 24 mph 64.6% 0.00 in 0 W/m2
05:29 29.2 °F 18.9 °F 29.54 in WNW 5.2 mph 24 mph 64.8% 0.00 in 0 W/m2
05:34 29.1 °F 18.8 °F 29.55 in WNW 9.1 mph 24 mph 65% 0.00 in 0 W/m2
05:39 29 °F 18.6 °F 29.55 in WNW 8.2 mph 22 mph 64.7% 0.00 in 0 W/m2
05:44 29 °F 18.4 °F 29.56 in WNW 8.6 mph 22 mph 64% 0.00 in 0 W/m2
05:49 29 °F 18.4 °F 29.56 in WNW 10 mph 22 mph 64.3% 0.00 in 0 W/m2
05:54 28.9 °F 18.5 °F 29.56 in WNW 7.8 mph 22 mph 64.6% 0.00 in 0 W/m2
05:59 28.9 °F 18.3 °F 29.57 in NW 10.6 mph 22 mph 64.1% 0.00 in 0 W/m2
06:04 28.9 °F 18 °F 29.57 in WNW 10.8 mph 22 mph 63.3% 0.00 in 0 W/m2
06:09 28.9 °F 17.9 °F 29.58 in WNW 7.9 mph 18 mph 63% 0.00 in 0 W/m2
06:14 28.9 °F 17.9 °F 29.59 in WNW 9.3 mph 27 mph 63% 0.00 in 0 W/m2
06:19 28.8 °F 17.8 °F 29.60 in WNW 10.2 mph 27 mph 63.1% 0.00 in 0 W/m2
06:24 28.7 °F 17.8 °F 29.60 in NW 11.3 mph 27 mph 63.1% 0.00 in 0 W/m2
06:29 28.7 °F 17.7 °F 29.61 in WNW 10.8 mph 27 mph 63% 0.00 in 0 W/m2
06:34 28.5 °F 17.7 °F 29.61 in WNW 10.2 mph 27 mph 63.4% 0.00 in 0 W/m2
06:39 28.4 °F 17.5 °F 29.62 in WNW 9.8 mph 21 mph 63.2% 0.00 in 0 W/m2
06:44 28.3 °F 17.7 °F 29.62 in WNW 9.3 mph 24 mph 64% 0.00 in 0 W/m2
06:49 28.3 °F 17.6 °F 29.62 in WNW 12.5 mph 24 mph 63.7% 0.00 in 0 W/m2
06:54 28.2 °F 17.3 °F 29.62 in WNW 10.4 mph 24 mph 63.2% 0.00 in 0 W/m2
06:59 28.2 °F 17.2 °F 29.63 in WNW 11.5 mph 24 mph 63.2% 0.00 in 0 W/m2
07:04 28.1 °F 17.3 °F 29.63 in WNW 10.5 mph 24 mph 63.3% 0.00 in 0 W/m2
07:09 28 °F 17.4 °F 29.64 in WNW 9.3 mph 23 mph 63.9% 0.00 in 0 W/m2
07:14 28 °F 17.4 °F 29.64 in WNW 12.7 mph 23 mph 63.8% 0.00 in 0 W/m2
07:19 27.9 °F 17.3 °F 29.65 in NW 7.2 mph 23 mph 64% 0.00 in 7 W/m2
07:23 27.9 °F 17.3 °F 29.65 in WNW 8.4 mph 23 mph 64% 0.00 in 7 W/m2
Hartford County Weather
Compliments of Weather Underground - 2 mb